Time;durP1;ratioP1;P1;durP2;ratioP2;P2;SDS_P1;SDS_P2;PMS_P1;PMS_P2;Temp;Humidity;BMP_temperature;BMP_pressure;BME280_temperature;BME280_humidity;BME280_pressure;Samples;Min_cycle;Max_cycle;Signal;HPM_P1;HPM_P2
2022/09/27 00:02:19;;;;;;;1.17;1.00;;;22.30;52.60;;;;;;5028491;28;20418;-84
2022/09/27 00:04:48;;;;;;;1.20;1.10;;;22.30;52.60;;;;;;5029543;28;20479;-84
2022/09/27 00:07:34;;;;;;;2.13;0.90;;;22.30;52.60;;;;;;5020454;28;20484;-84
2022/09/27 00:10:04;;;;;;;1.03;0.87;;;22.30;52.60;;;;;;5009548;28;20396;-84
2022/09/27 00:19:28;;;;;;;1.33;1.00;;;22.30;52.60;;;;;;5002690;28;20415;-85
2022/09/27 00:22:20;;;;;;;1.70;1.10;;;22.30;52.70;;;;;;5007791;28;20415;-85
2022/09/27 00:24:59;;;;;;;1.97;0.90;;;22.30;52.70;;;;;;5018648;28;20433;-84
2022/09/27 00:27:43;;;;;;;1.27;0.80;;;22.30;52.70;;;;;;5027301;28;20458;-84
2022/09/27 00:30:15;;;;;;;1.07;0.97;;;22.30;52.70;;;;;;5026409;28;20435;-85
2022/09/27 00:32:58;;;;;;;1.90;1.10;;;22.30;52.70;;;;;;5026779;28;20415;-85
2022/09/27 00:35:27;;;;;;;1.40;1.00;;;22.30;52.60;;;;;;5026238;28;20408;-84
2022/09/27 00:38:03;;;;;;;1.10;0.90;;;22.30;52.60;;;;;;5026966;28;20510;-84
2022/09/27 00:40:38;;;;;;;1.20;0.90;;;22.30;52.60;;;;;;5026415;28;20419;-85
2022/09/27 00:43:34;;;;;;;;;;;;;;;;;;;;;
2022/09/27 00:46:31;;;;;;;1.17;1.07;;;22.30;52.60;;;;;;5023768;28;20479;-86
2022/09/27 00:49:15;;;;;;;2.33;0.97;;;22.30;52.60;;;;;;5008386;28;20468;-86
2022/09/27 00:51:50;;;;;;;1.70;1.03;;;22.30;52.60;;;;;;5009040;28;20396;-84
2022/09/27 00:54:25;;;;;;;2.47;1.07;;;22.30;52.20;;;;;;5012859;28;20420;-85
2022/09/27 00:56:55;;;;;;;1.67;1.13;;;22.30;52.60;;;;;;5021369;28;20412;-84
2022/09/27 00:59:33;;;;;;;1.17;1.03;;;22.30;52.60;;;;;;5020561;28;20460;-84
2022/09/27 01:02:08;;;;;;;1.27;0.90;;;22.30;52.60;;;;;;5020597;28;20487;-85
2022/09/27 01:04:41;;;;;;;1.40;0.90;;;22.30;52.60;;;;;;5023571;28;20848;-85
2022/09/27 01:07:14;;;;;;;1.00;0.90;;;22.30;52.60;;;;;;5015757;28;20448;-86
2022/09/27 01:09:40;;;;;;;1.97;1.30;;;22.30;52.60;;;;;;5016237;28;20415;-84
2022/09/27 01:12:23;;;;;;;1.43;0.90;;;22.30;52.60;;;;;;5022889;28;20485;-86
2022/09/27 01:15:42;;;;;;;1.23;1.13;;;22.30;52.60;;;;;;5016899;28;20418;-85
2022/09/27 01:19:07;;;;;;;1.20;0.80;;;22.30;52.60;;;;;;4952994;29;20430;-86
2022/09/27 01:21:58;;;;;;;1.20;1.00;;;22.30;52.60;;;;;;4891403;29;20441;-84
2022/09/27 01:24:46;;;;;;;1.07;0.90;;;22.30;52.60;;;;;;4890933;29;20442;-85
2022/09/27 01:27:24;;;;;;;1.23;1.00;;;22.30;52.70;;;;;;4891587;29;20476;-84
2022/09/27 01:30:15;;;;;;;1.30;0.90;;;22.30;52.70;;;;;;4891801;29;20778;-85
2022/09/27 01:33:18;;;;;;;1.17;0.90;;;22.30;52.70;;;;;;4866185;29;20435;-85
2022/09/27 01:35:53;;;;;;;1.10;0.80;;;22.30;52.70;;;;;;4872345;29;20434;-85
2022/09/27 01:39:04;;;;;;;1.30;1.20;;;22.30;52.70;;;;;;4873920;29;20426;-84
2022/09/27 01:41:56;;;;;;;1.00;0.90;;;22.30;52.70;;;;;;4857785;29;20424;-85
2022/09/27 01:44:36;;;;;;;1.20;0.90;;;22.30;52.70;;;;;;4872382;29;20578;-84
2022/09/27 01:47:27;;;;;;;1.13;0.77;;;22.30;52.70;;;;;;4873007;29;20438;-85
2022/09/27 01:50:42;;;;;;;1.00;0.80;;;22.30;52.70;;;;;;4873980;29;20441;-85
2022/09/27 01:53:21;;;;;;;1.70;1.10;;;22.30;53.20;;;;;;4909708;29;20424;-86
2022/09/27 01:55:53;;;;;;;0.97;0.80;;;22.20;52.60;;;;;;4945322;29;20489;-85
2022/09/27 01:58:51;;;;;;;1.00;0.77;;;22.20;52.60;;;;;;4949419;29;20454;-85
2022/09/27 02:01:37;;;;;;;1.70;0.80;;;22.30;52.70;;;;;;4966335;29;20513;-85
2022/09/27 02:04:31;;;;;;;1.17;0.90;;;22.20;52.60;;;;;;4949550;29;20563;-84
2022/09/27 02:07:52;;;;;;;1.30;0.90;;;22.20;52.70;;;;;;4966161;29;20784;-85
2022/09/27 02:10:39;;;;;;;1.40;0.93;;;22.20;52.70;;;;;;4950124;29;20433;-86
2022/09/27 02:13:52;;;;;;;1.57;0.90;;;22.20;52.70;;;;;;4952707;29;20419;-85
2022/09/27 02:16:58;;;;;;;0.90;0.70;;;22.20;52.70;;;;;;4951381;29;20418;-85
2022/09/27 02:19:35;;;;;;;1.17;0.83;;;22.20;52.70;;;;;;4969033;28;20406;-85
2022/09/27 02:22:28;;;;;;;1.40;1.10;;;22.20;52.70;;;;;;4968765;28;20425;-85
2022/09/27 02:25:16;;;;;;;1.03;0.93;;;22.20;52.70;;;;;;4967029;28;20406;-85
2022/09/27 02:28:07;;;;;;;1.10;0.80;;;22.20;52.70;;;;;;5018130;28;20451;-84
2022/09/27 02:30:48;;;;;;;1.27;1.00;;;22.20;52.70;;;;;;5025152;28;20415;-84
2022/09/27 02:33:30;;;;;;;1.10;0.90;;;22.20;52.70;;;;;;5025402;28;20459;-86
2022/09/27 02:36:16;;;;;;;1.10;0.90;;;22.20;52.70;;;;;;5024225;28;20458;-86
2022/09/27 02:38:44;;;;;;;1.10;0.80;;;22.20;52.70;;;;;;5023040;28;20924;-85
2022/09/27 02:41:20;;;;;;;1.40;0.90;;;22.20;52.70;;;;;;5026683;28;20417;-84
2022/09/27 02:44:05;;;;;;;1.47;1.00;;;22.20;52.70;;;;;;5012488;28;20427;-84
2022/09/27 02:46:37;;;;;;;1.10;0.83;;;22.20;52.70;;;;;;5026215;28;20427;-85
2022/09/27 02:49:36;;;;;;;1.20;0.90;;;22.20;52.70;;;;;;5026101;28;20465;-85
2022/09/27 02:52:16;;;;;;;1.20;1.00;;;22.20;52.70;;;;;;5025801;28;20420;-85
2022/09/27 02:55:02;;;;;;;1.50;1.10;;;22.20;52.70;;;;;;5024896;28;20411;-86
2022/09/27 02:57:56;;;;;;;1.10;0.90;;;22.20;52.70;;;;;;5026554;28;20422;-84
2022/09/27 03:01:27;;;;;;;1.00;0.90;;;22.20;52.70;;;;;;5024733;28;20423;-85
2022/09/27 03:04:24;;;;;;;1.27;0.90;;;22.20;52.70;;;;;;4964953;28;20509;-84
2022/09/27 03:07:11;;;;;;;1.10;1.00;;;22.20;52.70;;;;;;4977586;28;20433;-84
2022/09/27 03:10:02;;;;;;;1.13;0.90;;;22.20;52.80;;;;;;5026855;28;20433;-85
2022/09/27 03:12:49;;;;;;;1.10;1.00;;;22.20;52.80;;;;;;5028500;28;20427;-84
2022/09/27 03:15:30;;;;;;;1.10;0.80;;;22.20;52.80;;;;;;5029022;28;20404;-84
2022/09/27 03:18:13;;;;;;;1.10;0.80;;;22.20;52.80;;;;;;5028159;28;20415;-85
2022/09/27 03:20:56;;;;;;;1.60;0.90;;;22.20;52.80;;;;;;5029259;28;20415;-84
2022/09/27 03:23:27;;;;;;;1.33;1.00;;;22.20;52.70;;;;;;5031992;28;20426;-86
2022/09/27 03:26:08;;;;;;;1.10;0.90;;;22.20;52.80;;;;;;5012160;28;20412;-84
2022/09/27 03:31:43;;;;;;;1.33;1.10;;;22.20;52.70;;;;;;4992287;28;20959;-86
2022/09/27 03:34:24;;;;;;;1.30;1.00;;;22.20;52.70;;;;;;5016779;28;20802;-86
2022/09/27 03:43:23;;;;;;;0.90;0.70;;;22.20;52.70;;;;;;5028999;28;20390;-84
2022/09/27 03:46:11;;;;;;;1.27;0.80;;;22.10;52.80;;;;;;5028053;28;20426;-84
2022/09/27 03:48:51;;;;;;;1.07;0.80;;;22.10;52.70;;;;;;5027029;28;20557;-84
2022/09/27 03:51:21;;;;;;;1.00;0.90;;;22.10;52.70;;;;;;5027097;28;20487;-85
2022/09/27 03:53:56;;;;;;;1.27;1.00;;;22.10;52.70;;;;;;5029586;28;20859;-85
2022/09/27 03:56:29;;;;;;;1.50;1.27;;;22.10;52.80;;;;;;5028884;28;20427;-86
2022/09/27 03:59:16;;;;;;;2.33;1.10;;;22.10;52.70;;;;;;5027098;28;20947;-85
2022/09/27 04:01:48;;;;;;;1.20;0.90;;;22.20;52.80;;;;;;5029483;28;20455;-84
2022/09/27 04:04:31;;;;;;;1.20;0.80;;;22.10;52.70;;;;;;5029807;28;20471;-84
2022/09/27 04:07:28;;;;;;;1.03;0.77;;;22.10;52.70;;;;;;5022150;28;20443;-84
2022/09/27 04:10:18;;;;;;;1.23;0.90;;;22.10;52.70;;;;;;5017043;28;20502;-85
2022/09/27 04:12:51;;;;;;;1.20;1.00;;;22.10;52.80;;;;;;5023281;28;20523;-85
2022/09/27 04:15:35;;;;;;;1.07;0.90;;;22.10;52.80;;;;;;5010908;28;20412;-86
2022/09/27 04:18:25;;;;;;;0.90;0.70;;;22.20;52.90;;;;;;5008560;28;20908;-85
2022/09/27 04:21:19;;;;;;;1.00;0.80;;;22.10;52.80;;;;;;5008873;28;20420;-85
2022/09/27 04:26:59;;;;;;;3.10;1.10;;;22.10;52.80;;;;;;5009683;28;20447;-86
2022/09/27 04:29:42;;;;;;;0.90;0.80;;;22.10;52.80;;;;;;5008219;28;20491;-85
2022/09/27 04:32:17;;;;;;;1.27;0.90;;;22.10;52.90;;;;;;5006304;28;20420;-84
2022/09/27 04:38:21;;;;;;;;;;;;;;;;;;;;;
2022/09/27 04:40:56;;;;;;;1.37;0.80;;;22.10;52.90;;;;;;4950110;29;20486;-85
2022/09/27 04:43:39;;;;;;;1.43;1.10;;;22.10;52.90;;;;;;4933000;29;20418;-84
2022/09/27 04:46:32;;;;;;;1.10;0.93;;;22.10;52.90;;;;;;4947899;29;20470;-85
2022/09/27 04:49:39;;;;;;;1.67;0.93;;;22.10;52.90;;;;;;4935768;29;20550;-84
2022/09/27 04:52:14;;;;;;;1.20;0.90;;;22.10;53.00;;;;;;4935511;29;20450;-84
2022/09/27 04:54:52;;;;;;;1.20;1.00;;;22.10;52.90;;;;;;4934752;29;20459;-85
2022/09/27 04:57:43;;;;;;;1.53;0.90;;;22.00;52.80;;;;;;4934699;29;20419;-84
2022/09/27 05:00:27;;;;;;;0.93;0.73;;;22.10;53.50;;;;;;4920744;29;20482;-84
2022/09/27 05:03:08;;;;;;;0.90;0.80;;;22.10;52.90;;;;;;4932440;29;20509;-85
2022/09/27 05:05:54;;;;;;;1.00;0.83;;;22.10;52.90;;;;;;4931631;29;20410;-86
2022/09/27 05:08:40;;;;;;;1.30;0.90;;;22.10;52.90;;;;;;4929414;29;20518;-85
2022/09/27 05:11:13;;;;;;;1.10;0.80;;;22.10;52.90;;;;;;4936630;29;20489;-85
2022/09/27 05:14:22;;;;;;;0.90;0.77;;;22.10;52.90;;;;;;4979541;28;20416;-85
2022/09/27 05:16:58;;;;;;;1.10;0.80;;;22.10;52.90;;;;;;5027138;28;20420;-84
2022/09/27 05:19:35;;;;;;;1.70;0.87;;;22.10;52.90;;;;;;5021871;28;20411;-83
2022/09/27 05:22:07;;;;;;;1.37;1.00;;;22.10;52.90;;;;;;5025222;28;20414;-83
2022/09/27 05:24:47;;;;;;;1.23;0.93;;;22.10;52.90;;;;;;5025109;28;20422;-84
2022/09/27 05:27:20;;;;;;;1.23;1.00;;;22.10;52.90;;;;;;5025704;28;20501;-84
2022/09/27 05:29:52;;;;;;;1.00;0.90;;;22.10;52.90;;;;;;5025872;28;20441;-84
2022/09/27 05:32:22;;;;;;;2.13;0.80;;;22.10;52.80;;;;;;5025188;28;20911;-84
2022/09/27 05:34:52;;;;;;;1.20;1.10;;;22.10;52.80;;;;;;5025414;28;20415;-84
2022/09/27 05:37:29;;;;;;;1.47;1.00;;;22.10;52.90;;;;;;5025233;28;20473;-84
2022/09/27 05:43:30;;;;;;;3.13;1.00;;;22.10;52.80;;;;;;5013055;28;20418;-84
2022/09/27 05:46:03;;;;;;;1.00;0.90;;;22.10;52.80;;;;;;5022556;28;20408;-83
2022/09/27 05:48:35;;;;;;;1.10;0.90;;;22.10;52.80;;;;;;5024883;28;20467;-83
2022/09/27 05:57:23;;;;;;;1.00;0.87;;;22.10;52.80;;;;;;5026096;28;20725;-83
2022/09/27 05:59:54;;;;;;;1.40;0.83;;;22.10;52.90;;;;;;5026288;28;20422;-83
2022/09/27 06:02:29;;;;;;;2.10;0.90;;;22.10;52.80;;;;;;5024702;28;20449;-83
2022/09/27 06:05:10;;;;;;;1.10;0.90;;;22.10;52.80;;;;;;5025810;28;20400;-83
2022/09/27 06:07:44;;;;;;;1.10;0.90;;;22.10;52.80;;;;;;5023740;28;20458;-83
2022/09/27 06:10:23;;;;;;;1.10;0.80;;;22.10;52.80;;;;;;5026381;28;20419;-83
2022/09/27 06:13:08;;;;;;;1.00;0.80;;;22.10;52.90;;;;;;5024194;28;20426;-83
2022/09/27 06:15:42;;;;;;;2.33;0.90;;;22.10;52.80;;;;;;5025018;28;20399;-83
2022/09/27 06:18:24;;;;;;;1.30;0.90;;;22.10;52.80;;;;;;5024711;28;20418;-83
2022/09/27 06:21:03;;;;;;;1.50;0.97;;;22.10;52.80;;;;;;5024348;28;20410;-83
2022/09/27 06:23:36;;;;;;;1.13;0.70;;;22.10;52.80;;;;;;5024992;28;20422;-84
2022/09/27 06:26:16;;;;;;;1.30;0.90;;;22.10;52.70;;;;;;5025929;28;20419;-84
2022/09/27 06:28:53;;;;;;;1.70;1.60;;;22.10;52.70;;;;;;5024903;28;20477;-85
2022/09/27 06:34:17;;;;;;;1.40;0.93;;;22.10;52.70;;;;;;5026430;28;20411;-84
2022/09/27 06:40:26;;;;;;;1.67;1.20;;;22.10;52.70;;;;;;5023487;28;20383;-84
2022/09/27 06:49:44;;;;;;;1.40;0.93;;;22.10;52.80;;;;;;4969070;28;20445;-84
2022/09/27 06:52:34;;;;;;;1.00;0.80;;;22.10;52.80;;;;;;4968653;29;20425;-85
2022/09/27 06:55:13;;;;;;;1.00;0.90;;;22.10;52.80;;;;;;4952697;29;20442;-84
2022/09/27 07:00:38;;;;;;;1.13;0.97;;;22.10;52.70;;;;;;4969291;29;20401;-85
2022/09/27 07:03:13;;;;;;;1.10;0.93;;;22.10;52.80;;;;;;4969501;29;20737;-84
2022/09/27 07:05:54;;;;;;;1.40;0.80;;;22.10;52.80;;;;;;4952671;29;20424;-84
2022/09/27 07:08:43;;;;;;;1.00;0.90;;;22.20;52.90;;;;;;4968637;29;20512;-84
2022/09/27 07:14:56;;;;;;;1.10;0.73;;;22.10;52.70;;;;;;4949504;29;20455;-84
2022/09/27 07:18:06;;;;;;;1.03;0.90;;;22.10;52.70;;;;;;4934713;29;20415;-84
2022/09/27 07:20:42;;;;;;;1.00;0.70;;;22.10;52.70;;;;;;4932944;29;20439;-84
2022/09/27 07:23:24;;;;;;;1.93;0.90;;;22.10;52.70;;;;;;4965395;28;20412;-86
2022/09/27 07:26:03;;;;;;;1.00;0.80;;;22.10;52.70;;;;;;4971852;28;20760;-85
2022/09/27 07:28:44;;;;;;;1.37;0.90;;;22.10;52.70;;;;;;4972049;28;20465;-85
2022/09/27 07:31:18;;;;;;;1.30;0.90;;;22.10;52.80;;;;;;4952733;29;20410;-85
2022/09/27 07:37:48;;;;;;;1.73;0.93;;;22.20;52.90;;;;;;4988327;28;20826;-85
2022/09/27 07:43:43;;;;;;;1.17;0.80;;;22.20;53.00;;;;;;4987483;28;20439;-84
2022/09/27 07:49:07;;;;;;;1.10;0.97;;;22.10;52.90;;;;;;5020275;28;20526;-84
2022/09/27 07:58:19;;;;;;;1.87;0.80;;;22.20;52.90;;;;;;4970151;28;20499;-85
2022/09/27 08:00:59;;;;;;;0.90;0.80;;;22.20;52.90;;;;;;4949674;29;20501;-85
2022/09/27 08:03:26;;;;;;;3.00;0.73;;;22.20;52.90;;;;;;4928665;29;20503;-85
2022/09/27 08:06:02;;;;;;;1.10;0.90;;;22.20;52.90;;;;;;4913394;29;20439;-85
2022/09/27 08:08:40;;;;;;;0.93;0.80;;;22.20;52.90;;;;;;4929400;29;20463;-85
2022/09/27 08:11:28;;;;;;;1.50;0.90;;;22.20;52.80;;;;;;4929076;29;20503;-85
2022/09/27 08:14:09;;;;;;;0.90;0.80;;;22.30;52.90;;;;;;4929158;29;20408;-85
2022/09/27 08:16:46;;;;;;;1.13;0.80;;;22.30;52.90;;;;;;4913530;29;20411;-85
2022/09/27 08:19:33;;;;;;;1.77;0.70;;;22.30;52.80;;;;;;4928465;29;20429;-85
2022/09/27 08:22:09;;;;;;;1.80;0.93;;;22.30;52.80;;;;;;4928097;29;20427;-85
2022/09/27 08:24:46;;;;;;;0.90;0.80;;;22.30;52.80;;;;;;4955388;28;20420;-85
2022/09/27 08:27:48;;;;;;;1.67;1.00;;;22.30;52.80;;;;;;5009636;28;20951;-85
2022/09/27 08:30:33;;;;;;;1.00;0.80;;;22.30;52.80;;;;;;5025662;28;20419;-85
2022/09/27 08:33:15;;;;;;;1.93;1.57;;;22.30;52.80;;;;;;5026056;28;20506;-84
2022/09/27 08:35:56;;;;;;;2.03;1.30;;;22.30;52.80;;;;;;5009163;28;20428;-84
2022/09/27 08:38:43;;;;;;;0.90;0.70;;;22.30;52.80;;;;;;5026279;28;20419;-85
2022/09/27 08:41:48;;;;;;;1.20;0.90;;;22.30;52.80;;;;;;5025237;28;20423;-85
2022/09/27 08:45:11;;;;;;;1.43;0.83;;;22.30;52.80;;;;;;5025870;28;20415;-85
2022/09/27 08:48:01;;;;;;;1.00;0.80;;;22.30;52.80;;;;;;4985386;28;20484;-85
2022/09/27 08:50:44;;;;;;;0.90;0.80;;;22.30;52.80;;;;;;5024540;28;20470;-84
2022/09/27 08:53:58;;;;;;;;;;;;;;;;;;;;;
2022/09/27 08:56:35;;;;;;;1.57;0.80;;;22.40;52.90;;;;;;5024758;28;20502;-85
2022/09/27 09:06:33;;;;;;;1.20;0.80;;;22.40;52.90;;;;;;5004986;28;20396;-85
2022/09/27 09:09:42;;;;;;;0.90;0.80;;;22.40;52.90;;;;;;4990512;28;20455;-85
2022/09/27 09:19:16;;;;;;;1.13;0.90;;;22.40;52.90;;;;;;5008696;28;20399;-85
2022/09/27 09:22:27;;;;;;;0.97;0.80;;;22.40;52.90;;;;;;4991558;28;20417;-85
2022/09/27 09:25:49;;;;;;;1.00;0.73;;;22.40;53.00;;;;;;4948405;29;20728;-85
2022/09/27 09:49:34;;;;;;;1.60;0.80;;;22.40;53.00;;;;;;4875328;29;20461;-84
2022/09/27 09:52:56;;;;;;;;;;;;;;;;;;;;;
2022/09/27 10:02:33;;;;;;;1.37;1.00;;;22.40;53.00;;;;;;4905038;29;20396;-85
2022/09/27 10:06:11;;;;;;;;;;;;;;;;;;;;;
2022/09/27 10:32:55;;;;;;;1.10;0.77;;;22.40;52.90;;;;;;4933142;28;20420;-85
2022/09/27 10:36:04;;;;;;;1.00;0.70;;;22.40;52.90;;;;;;4913455;29;20417;-84
2022/09/27 10:49:22;;;;;;;0.97;0.80;;;22.50;52.90;;;;;;4873903;29;20628;-84
2022/09/27 10:52:19;;;;;;;1.00;0.80;;;22.50;52.90;;;;;;4859181;29;20431;-85
2022/09/27 10:55:26;;;;;;;1.00;0.80;;;22.40;52.90;;;;;;4875342;29;20426;-85
2022/09/27 10:58:12;;;;;;;1.17;0.80;;;22.50;52.90;;;;;;4873279;29;20427;-85
2022/09/27 11:01:11;;;;;;;2.10;0.93;;;22.50;52.90;;;;;;4932336;29;20427;-85
2022/09/27 11:14:30;;;;;;;1.03;0.80;;;22.50;52.80;;;;;;4874060;29;20418;-85
2022/09/27 11:24:06;;;;;;;2.80;0.87;;;22.50;52.90;;;;;;4912881;28;20396;-85
2022/09/27 11:44:21;;;;;;;;;;;;;;;;;;;;;
2022/09/27 11:47:23;;;;;;;1.40;0.93;;;22.50;52.90;;;;;;4915190;29;20448;-85
2022/09/27 11:50:26;;;;;;;1.97;1.00;;;22.50;52.90;;;;;;4918054;29;20455;-84
2022/09/27 12:00:04;;;;;;;4.57;1.40;;;22.50;53.00;;;;;;5265924;23;20484;-88
2022/09/27 12:09:53;;;;;;;2.47;1.57;;;22.50;53.00;;;;;;4993607;28;20471;-89
2022/09/27 12:12:44;;;;;;;3.27;1.13;;;22.50;53.00;;;;;;5010343;28;20462;-88
2022/09/27 12:22:31;;;;;;;1.50;1.17;;;22.50;52.90;;;;;;4917324;28;20451;-88
2022/09/27 12:25:13;;;;;;;;;;;;;;;;;;;;;
2022/09/27 12:28:33;;;;;;;2.60;0.90;;;22.50;52.90;;;;;;4987306;28;20533;-88
2022/09/27 12:31:24;;;;;;;2.10;1.03;;;22.60;53.00;;;;;;4976862;28;20445;-88
2022/09/27 12:41:36;;;;;;;5.00;1.53;;;22.50;52.90;;;;;;4983816;28;20386;-89
2022/09/27 12:44:22;;;;;;;3.63;1.30;;;22.50;52.90;;;;;;4911609;29;20428;-89
2022/09/27 12:47:23;;;;;;;1.23;0.83;;;22.50;52.90;;;;;;4883267;29;20447;-88
2022/09/27 12:50:30;;;;;;;1.20;0.90;;;22.50;52.90;;;;;;4894980;29;20421;-89
2022/09/27 12:56:56;;;;;;;1.43;0.80;;;22.50;52.90;;;;;;4906616;29;20425;-88
2022/09/27 13:06:31;;;;;;;1.20;0.80;;;22.50;52.70;;;;;;4909944;29;20395;-88
2022/09/27 13:09:14;;;;;;;3.10;1.10;;;22.50;52.70;;;;;;4894215;29;20532;-88
2022/09/27 13:13:07;;;;;;;;;;;;;;;;;;;;;
2022/09/27 13:15:41;;;;;;;6.20;1.40;;;22.40;52.50;;;;;;4876392;29;20425;-88
2022/09/27 13:52:32;;;;;;;1.43;1.00;;;22.40;52.80;;;;;;4912642;29;20427;-88
2022/09/27 13:55:57;;;;;;;2.50;1.00;;;22.40;52.80;;;;;;4970842;28;20433;-88
2022/09/27 13:58:53;;;;;;;3.27;0.93;;;22.40;52.80;;;;;;4948529;29;20717;-88
2022/09/27 14:01:51;;;;;;;2.43;0.90;;;22.40;52.80;;;;;;4969238;28;20504;-87
2022/09/27 14:14:53;;;;;;;1.20;0.80;;;22.40;52.80;;;;;;5066702;28;20405;-87
2022/09/27 14:20:47;;;;;;;2.07;0.90;;;22.40;52.80;;;;;;4944981;29;20533;-88
2022/09/27 14:23:35;;;;;;;2.00;1.07;;;22.40;52.80;;;;;;4931986;29;20457;-88
2022/09/27 14:26:36;;;;;;;1.83;0.83;;;22.40;52.80;;;;;;4934437;29;20469;-87
2022/09/27 14:29:25;;;;;;;6.23;1.20;;;22.40;52.80;;;;;;4938607;28;20437;-88
2022/09/27 14:32:30;;;;;;;2.50;1.00;;;22.40;52.70;;;;;;4936062;29;20458;-88
2022/09/27 14:37:58;;;;;;;3.00;1.20;;;22.40;52.80;;;;;;4957626;29;20445;-87
2022/09/27 14:40:28;;;;;;;1.80;1.07;;;22.40;52.70;;;;;;4937347;29;20440;-87
2022/09/27 14:43:20;;;;;;;3.20;1.20;;;22.40;52.70;;;;;;5003339;28;20417;-87
2022/09/27 14:45:56;;;;;;;1.67;0.90;;;22.40;52.70;;;;;;5041599;28;20411;-87
2022/09/27 14:52:20;;;;;;;3.67;1.30;;;22.40;52.70;;;;;;5051466;28;20425;-88
2022/09/27 14:55:06;;;;;;;1.30;0.97;;;22.40;52.80;;;;;;5037235;28;20504;-88
2022/09/27 15:00:40;;;;;;;1.10;0.83;;;22.40;52.70;;;;;;5056629;28;20493;-88
2022/09/27 15:07:04;;;;;;;2.10;0.90;;;22.40;52.70;;;;;;5055929;28;20720;-87
2022/09/27 15:09:31;;;;;;;3.07;0.90;;;22.40;52.70;;;;;;5017280;28;20544;-88
2022/09/27 15:12:11;;;;;;;1.30;0.90;;;22.40;52.70;;;;;;5032672;28;20461;-88
2022/09/27 15:17:40;;;;;;;2.00;1.00;;;22.40;52.60;;;;;;5034905;28;20690;-88
2022/09/27 15:20:26;;;;;;;1.40;1.00;;;22.40;52.70;;;;;;5049237;28;20399;-87
2022/09/27 15:22:59;;;;;;;1.40;0.93;;;22.40;52.60;;;;;;5058129;28;20843;-87
2022/09/27 15:28:53;;;;;;;1.10;0.90;;;22.40;52.60;;;;;;5069184;28;20752;-87
2022/09/27 15:31:41;;;;;;;1.17;0.83;;;22.40;52.70;;;;;;5035654;28;20524;-87
2022/09/27 15:34:17;;;;;;;2.23;1.00;;;22.40;52.60;;;;;;5052272;28;20421;-86
2022/09/27 15:37:05;;;;;;;1.87;0.90;;;22.40;52.60;;;;;;5053095;28;20747;-87
2022/09/27 15:39:54;;;;;;;1.10;1.00;;;22.40;52.60;;;;;;5054665;28;20418;-86
2022/09/27 15:46:08;;;;;;;1.23;0.90;;;22.40;52.70;;;;;;5054835;28;20417;-87
2022/09/27 15:48:36;;;;;;;1.00;0.80;;;22.40;52.70;;;;;;5054857;28;20453;-87
2022/09/27 15:51:29;;;;;;;1.73;0.90;;;22.40;52.70;;;;;;5054227;28;20443;-87
2022/09/27 15:54:08;;;;;;;1.13;0.70;;;22.40;52.60;;;;;;5053606;28;20517;-89
2022/09/27 15:56:49;;;;;;;1.47;0.80;;;22.40;52.60;;;;;;5052808;28;20421;-90
2022/09/27 15:59:34;;;;;;;2.47;1.10;;;22.40;52.60;;;;;;5052254;28;20417;-87
2022/09/27 16:05:25;;;;;;;1.80;1.10;;;22.40;52.60;;;;;;5069721;28;20408;-89
2022/09/27 16:08:12;;;;;;;1.03;0.90;;;22.40;52.60;;;;;;5051991;28;20452;-89
2022/09/27 16:10:41;;;;;;;1.47;0.90;;;22.40;52.60;;;;;;5051417;28;20409;-87
2022/09/27 16:13:16;;;;;;;3.13;1.37;;;22.40;52.60;;;;;;5052011;28;20412;-87
2022/09/27 16:16:03;;;;;;;1.90;0.90;;;22.40;52.60;;;;;;5051678;28;20398;-87
2022/09/27 16:19:43;;;;;;;1.00;0.80;;;22.40;52.60;;;;;;5051646;28;20706;-89
2022/09/27 16:22:08;;;;;;;2.10;0.90;;;22.40;52.60;;;;;;5059764;28;20410;-88
2022/09/27 16:24:34;;;;;;;1.90;1.50;;;22.30;52.50;;;;;;5050605;28;20437;-88
2022/09/27 16:27:00;;;;;;;1.10;0.90;;;22.40;52.60;;;;;;5051280;28;20469;-89
2022/09/27 16:29:34;;;;;;;2.37;0.80;;;22.40;53.20;;;;;;5050521;28;20489;-87
2022/09/27 16:32:07;;;;;;;1.10;0.80;;;22.40;52.60;;;;;;5050668;28;20440;-88
2022/09/27 16:34:34;;;;;;;1.50;0.97;;;22.40;52.60;;;;;;5050808;28;20409;-87
2022/09/27 16:37:10;;;;;;;1.03;0.90;;;22.40;52.50;;;;;;5050545;28;20414;-87
2022/09/27 16:39:41;;;;;;;1.47;0.90;;;22.40;52.50;;;;;;5067801;28;20405;-89
2022/09/27 16:42:10;;;;;;;1.67;0.73;;;22.40;52.50;;;;;;5068580;28;20428;-88
2022/09/27 16:44:36;;;;;;;1.47;0.90;;;22.40;52.50;;;;;;5067648;28;20406;-88
2022/09/27 16:47:12;;;;;;;2.30;0.90;;;22.40;53.10;;;;;;5050592;28;20418;-87
2022/09/27 16:52:32;;;;;;;1.90;1.30;;;22.40;52.50;;;;;;5068039;28;20527;-88
2022/09/27 16:55:03;;;;;;;1.20;0.93;;;22.40;52.50;;;;;;5049625;28;20417;-88
2022/09/27 16:57:32;;;;;;;1.73;0.83;;;22.40;52.60;;;;;;5067567;28;20393;-89
2022/09/27 17:00:02;;;;;;;1.73;0.90;;;22.40;52.50;;;;;;5049602;28;20486;-88
2022/09/27 17:02:52;;;;;;;1.20;0.90;;;22.40;52.50;;;;;;5049511;28;20410;-88
2022/09/27 17:05:41;;;;;;;1.70;0.90;;;22.40;52.50;;;;;;5050178;28;20410;-89
2022/09/27 17:08:09;;;;;;;2.40;0.83;;;22.30;52.50;;;;;;5066862;28;20446;-88
2022/09/27 17:10:47;;;;;;;1.57;1.00;;;22.30;52.50;;;;;;5067157;28;20397;-88
2022/09/27 17:13:21;;;;;;;2.03;0.90;;;22.30;52.50;;;;;;5049509;28;20479;-89
2022/09/27 17:16:06;;;;;;;;;;;;;;;;;;;;;
2022/09/27 17:18:41;;;;;;;1.10;0.90;;;22.30;52.50;;;;;;5066987;28;20465;-88
2022/09/27 17:21:15;;;;;;;1.67;0.83;;;22.30;52.50;;;;;;5049666;28;20909;-88
2022/09/27 17:23:46;;;;;;;1.00;0.70;;;22.30;52.50;;;;;;5048717;28;20916;-88
2022/09/27 17:26:22;;;;;;;1.30;0.80;;;22.30;52.50;;;;;;5066672;28;20396;-88
2022/09/27 17:28:59;;;;;;;1.10;0.90;;;22.30;52.50;;;;;;5048702;28;20452;-88
2022/09/27 17:31:36;;;;;;;1.87;0.90;;;22.30;52.50;;;;;;5050223;28;20437;-88
2022/09/27 17:34:03;;;;;;;1.43;0.87;;;22.30;52.50;;;;;;5042433;28;20471;-88
2022/09/27 17:36:41;;;;;;;1.70;0.80;;;22.30;52.50;;;;;;5049701;28;20409;-89
2022/09/27 17:39:13;;;;;;;1.77;0.80;;;22.30;52.50;;;;;;5048970;28;20477;-88
2022/09/27 17:41:45;;;;;;;1.43;0.83;;;22.30;52.50;;;;;;5041647;28;20480;-88
2022/09/27 17:44:29;;;;;;;;;;;;;;;;;;;;;
2022/09/27 17:52:36;;;;;;;2.67;1.00;;;22.30;52.50;;;;;;5062799;28;20751;-87
2022/09/27 17:55:09;;;;;;;1.70;0.80;;;22.30;52.60;;;;;;5048629;28;20464;-87
2022/09/27 17:57:42;;;;;;;1.57;0.80;;;22.30;52.50;;;;;;5048581;28;20448;-89
2022/09/27 18:00:21;;;;;;;1.50;1.07;;;22.30;52.50;;;;;;5048643;28;20862;-88
2022/09/27 18:03:27;;;;;;;1.20;0.80;;;22.30;52.50;;;;;;5048701;28;20437;-88
2022/09/27 18:06:17;;;;;;;;;;;;;;;;;;;;;
2022/09/27 18:09:01;;;;;;;1.30;0.90;;;22.30;52.50;;;;;;5066706;28;20805;-88
2022/09/27 18:11:56;;;;;;;1.33;0.93;;;22.30;52.50;;;;;;5048562;28;20413;-88
2022/09/27 18:14:35;;;;;;;1.20;0.80;;;22.30;52.60;;;;;;5066191;28;20410;-88
2022/09/27 18:17:19;;;;;;;1.93;0.90;;;22.30;52.60;;;;;;5033650;28;20451;-89
2022/09/27 18:19:52;;;;;;;1.10;0.80;;;22.30;52.60;;;;;;5048429;28;20448;-89
2022/09/27 18:22:30;;;;;;;1.13;0.80;;;22.30;52.60;;;;;;5048807;28;20443;-89
2022/09/27 18:25:09;;;;;;;1.00;0.70;;;22.30;52.60;;;;;;5048996;28;20413;-89
2022/09/27 18:27:39;;;;;;;1.10;0.90;;;22.30;52.60;;;;;;5065821;28;20444;-88
2022/09/27 18:30:14;;;;;;;1.73;0.80;;;22.30;52.60;;;;;;5065643;28;20402;-88
2022/09/27 18:32:44;;;;;;;1.03;0.70;;;22.30;52.60;;;;;;5048183;28;20421;-88
2022/09/27 18:35:23;;;;;;;;;;;;;;;;;;;;;
2022/09/27 18:37:52;;;;;;;1.30;0.70;;;22.30;52.50;;;;;;5066746;28;20477;-88
2022/09/27 18:40:24;;;;;;;1.10;0.90;;;22.30;52.50;;;;;;5052965;28;20541;-88
2022/09/27 18:42:56;;;;;;;1.70;1.03;;;22.30;52.50;;;;;;5055640;28;20410;-88
2022/09/27 18:45:24;;;;;;;1.03;0.80;;;22.30;52.50;;;;;;5054421;28;20433;-88
2022/09/27 18:47:53;;;;;;;0.83;0.70;;;22.30;52.50;;;;;;5054818;28;20505;-88
2022/09/27 18:50:20;;;;;;;0.90;0.70;;;22.30;52.50;;;;;;5054594;28;20409;-89
2022/09/27 18:52:51;;;;;;;0.93;0.67;;;22.30;52.50;;;;;;5054204;28;20420;-88
2022/09/27 18:55:23;;;;;;;1.10;0.80;;;22.30;52.50;;;;;;5054290;28;20428;-88
2022/09/27 18:57:53;;;;;;;0.90;0.73;;;22.30;52.50;;;;;;5054010;28;20433;-89
2022/09/27 19:00:20;;;;;;;1.17;0.90;;;22.30;52.50;;;;;;5068624;28;20478;-88
2022/09/27 19:02:50;;;;;;;1.33;0.83;;;22.30;52.60;;;;;;5052298;28;20763;-88
2022/09/27 19:05:17;;;;;;;1.83;0.80;;;22.30;52.50;;;;;;5052172;28;20484;-88
2022/09/27 19:08:01;;;;;;;1.83;0.90;;;22.30;52.50;;;;;;5051792;28;20416;-88
2022/09/27 19:10:33;;;;;;;1.27;0.80;;;22.30;52.50;;;;;;5052263;28;20175;-88
2022/09/27 19:13:04;;;;;;;1.00;0.80;;;22.20;52.50;;;;;;5068907;28;20504;-89
2022/09/27 19:15:35;;;;;;;0.90;0.70;;;22.30;52.50;;;;;;5032022;28;20417;-88
2022/09/27 19:18:02;;;;;;;1.37;0.80;;;22.20;52.50;;;;;;5031867;28;20418;-88
2022/09/27 19:20:33;;;;;;;0.90;0.63;;;22.20;52.40;;;;;;5031617;28;20422;-89
2022/09/27 19:23:02;;;;;;;1.03;0.70;;;22.20;52.50;;;;;;5032347;28;20769;-89
2022/09/27 19:25:32;;;;;;;0.93;0.83;;;22.20;52.50;;;;;;5049147;28;20456;-88